sensor_id;sensor_type;location;lat;lon;timestamp;P1;durP1;ratioP1;P2;durP2;ratioP2
75165;SDS011;63747;48.042;10.088;2023-07-13T00:00:36;7.95;;;4.55;;
75165;SDS011;63747;48.042;10.088;2023-07-13T00:03:37;5.20;;;4.38;;
75165;SDS011;63747;48.042;10.088;2023-07-13T00:06:37;4.65;;;4.03;;
75165;SDS011;63747;48.042;10.088;2023-07-13T00:09:38;4.75;;;4.18;;
75165;SDS011;63747;48.042;10.088;2023-07-13T00:12:39;5.10;;;4.55;;
75165;SDS011;63747;48.042;10.088;2023-07-13T00:15:39;6.13;;;5.40;;
75165;SDS011;63747;48.042;10.088;2023-07-13T00:18:40;6.10;;;5.20;;
75165;SDS011;63747;48.042;10.088;2023-07-13T00:21:41;7.47;;;5.40;;
75165;SDS011;63747;48.042;10.088;2023-07-13T00:24:42;6.95;;;5.65;;
75165;SDS011;63747;48.042;10.088;2023-07-13T00:27:43;6.57;;;5.88;;
75165;SDS011;63747;48.042;10.088;2023-07-13T00:30:44;6.15;;;5.55;;
75165;SDS011;63747;48.042;10.088;2023-07-13T00:33:46;8.40;;;6.40;;
75165;SDS011;63747;48.042;10.088;2023-07-13T00:36:47;8.18;;;6.60;;
75165;SDS011;63747;48.042;10.088;2023-07-13T00:39:48;7.43;;;6.53;;
75165;SDS011;63747;48.042;10.088;2023-07-13T00:42:48;7.47;;;6.68;;
75165;SDS011;63747;48.042;10.088;2023-07-13T00:48:57;7.28;;;6.53;;
75165;SDS011;63747;48.042;10.088;2023-07-13T00:52:08;9.63;;;6.28;;
75165;SDS011;63747;48.042;10.088;2023-07-13T00:55:09;8.57;;;6.25;;
75165;SDS011;63747;48.042;10.088;2023-07-13T00:58:12;6.30;;;5.13;;
75165;SDS011;63747;48.042;10.088;2023-07-13T01:01:13;7.35;;;5.15;;
75165;SDS011;63747;48.042;10.088;2023-07-13T01:04:14;5.85;;;4.57;;
75165;SDS011;63747;48.042;10.088;2023-07-13T01:07:15;5.35;;;4.22;;
75165;SDS011;63747;48.042;10.088;2023-07-13T01:13:17;5.30;;;4.18;;
75165;SDS011;63747;48.042;10.088;2023-07-13T01:16:22;6.72;;;4.30;;
75165;SDS011;63747;48.042;10.088;2023-07-13T01:19:30;5.00;;;3.92;;
75165;SDS011;63747;48.042;10.088;2023-07-13T01:22:39;7.85;;;3.95;;
75165;SDS011;63747;48.042;10.088;2023-07-13T01:25:39;7.72;;;4.20;;
75165;SDS011;63747;48.042;10.088;2023-07-13T01:28:40;5.25;;;3.80;;
75165;SDS011;63747;48.042;10.088;2023-07-13T01:31:41;6.22;;;4.05;;
75165;SDS011;63747;48.042;10.088;2023-07-13T01:34:41;5.35;;;4.25;;
75165;SDS011;63747;48.042;10.088;2023-07-13T01:37:44;5.22;;;4.10;;
75165;SDS011;63747;48.042;10.088;2023-07-13T01:40:44;5.78;;;3.88;;
75165;SDS011;63747;48.042;10.088;2023-07-13T01:43:46;6.22;;;4.18;;
75165;SDS011;63747;48.042;10.088;2023-07-13T01:46:46;8.75;;;4.32;;
75165;SDS011;63747;48.042;10.088;2023-07-13T01:49:47;5.10;;;4.25;;
75165;SDS011;63747;48.042;10.088;2023-07-13T01:52:48;5.70;;;4.38;;
75165;SDS011;63747;48.042;10.088;2023-07-13T01:55:48;7.07;;;4.38;;
75165;SDS011;63747;48.042;10.088;2023-07-13T01:58:49;6.30;;;4.43;;
75165;SDS011;63747;48.042;10.088;2023-07-13T02:01:50;11.57;;;4.90;;
75165;SDS011;63747;48.042;10.088;2023-07-13T02:04:51;5.47;;;4.43;;
75165;SDS011;63747;48.042;10.088;2023-07-13T02:07:51;8.77;;;4.60;;
75165;SDS011;63747;48.042;10.088;2023-07-13T02:10:52;5.93;;;3.67;;
75165;SDS011;63747;48.042;10.088;2023-07-13T02:13:53;6.35;;;3.47;;
75165;SDS011;63747;48.042;10.088;2023-07-13T02:16:54;7.35;;;4.00;;
75165;SDS011;63747;48.042;10.088;2023-07-13T02:19:54;6.28;;;3.90;;
75165;SDS011;63747;48.042;10.088;2023-07-13T02:22:55;5.40;;;3.50;;
75165;SDS011;63747;48.042;10.088;2023-07-13T02:28:58;6.72;;;3.45;;
75165;SDS011;63747;48.042;10.088;2023-07-13T02:31:58;4.38;;;3.30;;
75165;SDS011;63747;48.042;10.088;2023-07-13T02:34:59;4.75;;;3.22;;
75165;SDS011;63747;48.042;10.088;2023-07-13T02:38:00;4.55;;;2.83;;
75165;SDS011;63747;48.042;10.088;2023-07-13T02:41:01;7.85;;;3.53;;
75165;SDS011;63747;48.042;10.088;2023-07-13T02:44:02;5.72;;;3.42;;
75165;SDS011;63747;48.042;10.088;2023-07-13T02:47:03;6.03;;;3.38;;
75165;SDS011;63747;48.042;10.088;2023-07-13T02:50:04;3.97;;;3.15;;
75165;SDS011;63747;48.042;10.088;2023-07-13T02:53:06;6.55;;;3.92;;
75165;SDS011;63747;48.042;10.088;2023-07-13T02:56:06;4.35;;;3.88;;
75165;SDS011;63747;48.042;10.088;2023-07-13T02:59:07;7.22;;;3.70;;
75165;SDS011;63747;48.042;10.088;2023-07-13T03:02:08;5.80;;;3.60;;
75165;SDS011;63747;48.042;10.088;2023-07-13T03:05:09;6.00;;;3.90;;
75165;SDS011;63747;48.042;10.088;2023-07-13T03:08:12;5.13;;;3.78;;
75165;SDS011;63747;48.042;10.088;2023-07-13T03:11:14;7.65;;;3.80;;
75165;SDS011;63747;48.042;10.088;2023-07-13T03:14:17;6.10;;;3.55;;
75165;SDS011;63747;48.042;10.088;2023-07-13T03:17:18;5.20;;;3.80;;
75165;SDS011;63747;48.042;10.088;2023-07-13T03:20:19;7.03;;;4.18;;
75165;SDS011;63747;48.042;10.088;2023-07-13T03:23:20;7.07;;;3.97;;
75165;SDS011;63747;48.042;10.088;2023-07-13T03:26:22;5.53;;;4.40;;
75165;SDS011;63747;48.042;10.088;2023-07-13T03:29:22;5.13;;;3.60;;
75165;SDS011;63747;48.042;10.088;2023-07-13T03:32:23;6.20;;;4.00;;
75165;SDS011;63747;48.042;10.088;2023-07-13T03:35:24;7.50;;;3.90;;
75165;SDS011;63747;48.042;10.088;2023-07-13T03:38:25;4.68;;;4.05;;
75165;SDS011;63747;48.042;10.088;2023-07-13T03:44:26;6.50;;;4.07;;
75165;SDS011;63747;48.042;10.088;2023-07-13T03:47:27;6.32;;;4.28;;
75165;SDS011;63747;48.042;10.088;2023-07-13T03:50:28;7.38;;;5.00;;
75165;SDS011;63747;48.042;10.088;2023-07-13T03:53:28;6.65;;;4.30;;
75165;SDS011;63747;48.042;10.088;2023-07-13T03:56:29;7.22;;;4.50;;
75165;SDS011;63747;48.042;10.088;2023-07-13T03:59:32;9.82;;;4.50;;
75165;SDS011;63747;48.042;10.088;2023-07-13T04:02:33;8.63;;;4.88;;
75165;SDS011;63747;48.042;10.088;2023-07-13T04:05:35;5.45;;;4.55;;
75165;SDS011;63747;48.042;10.088;2023-07-13T04:08:36;6.25;;;4.80;;
75165;SDS011;63747;48.042;10.088;2023-07-13T04:11:37;7.82;;;5.15;;
75165;SDS011;63747;48.042;10.088;2023-07-13T04:14:37;6.22;;;4.90;;
75165;SDS011;63747;48.042;10.088;2023-07-13T04:17:38;7.15;;;4.63;;
75165;SDS011;63747;48.042;10.088;2023-07-13T04:20:39;7.65;;;4.85;;
75165;SDS011;63747;48.042;10.088;2023-07-13T04:23:40;8.93;;;5.40;;
75165;SDS011;63747;48.042;10.088;2023-07-13T04:26:40;8.23;;;4.95;;
75165;SDS011;63747;48.042;10.088;2023-07-13T04:29:41;6.88;;;4.90;;
75165;SDS011;63747;48.042;10.088;2023-07-13T04:32:42;9.60;;;5.13;;
75165;SDS011;63747;48.042;10.088;2023-07-13T04:35:43;7.35;;;4.50;;
75165;SDS011;63747;48.042;10.088;2023-07-13T04:38:45;7.78;;;4.38;;
75165;SDS011;63747;48.042;10.088;2023-07-13T04:41:46;7.57;;;5.18;;
75165;SDS011;63747;48.042;10.088;2023-07-13T04:44:50;8.07;;;4.30;;
75165;SDS011;63747;48.042;10.088;2023-07-13T04:47:51;7.80;;;4.47;;
75165;SDS011;63747;48.042;10.088;2023-07-13T04:50:56;4.82;;;3.10;;
75165;SDS011;63747;48.042;10.088;2023-07-13T04:53:58;5.75;;;3.05;;
75165;SDS011;63747;48.042;10.088;2023-07-13T04:56:58;3.92;;;1.90;;
75165;SDS011;63747;48.042;10.088;2023-07-13T04:59:59;3.95;;;1.70;;
75165;SDS011;63747;48.042;10.088;2023-07-13T05:06:04;4.63;;;2.15;;
75165;SDS011;63747;48.042;10.088;2023-07-13T05:09:06;4.25;;;2.40;;
75165;SDS011;63747;48.042;10.088;2023-07-13T05:12:08;4.55;;;1.83;;
75165;SDS011;63747;48.042;10.088;2023-07-13T05:15:09;3.47;;;1.60;;
75165;SDS011;63747;48.042;10.088;2023-07-13T05:18:11;4.63;;;2.05;;
75165;SDS011;63747;48.042;10.088;2023-07-13T05:21:11;5.70;;;2.05;;
75165;SDS011;63747;48.042;10.088;2023-07-13T05:24:12;4.93;;;2.25;;
75165;SDS011;63747;48.042;10.088;2023-07-13T05:27:13;3.15;;;2.00;;
75165;SDS011;63747;48.042;10.088;2023-07-13T05:30:14;3.35;;;2.00;;
75165;SDS011;63747;48.042;10.088;2023-07-13T05:36:16;2.45;;;1.42;;
75165;SDS011;63747;48.042;10.088;2023-07-13T05:39:16;5.82;;;1.73;;
75165;SDS011;63747;48.042;10.088;2023-07-13T05:42:17;6.00;;;1.73;;
75165;SDS011;63747;48.042;10.088;2023-07-13T05:48:19;2.83;;;1.80;;
75165;SDS011;63747;48.042;10.088;2023-07-13T05:51:19;4.63;;;1.65;;
75165;SDS011;63747;48.042;10.088;2023-07-13T05:54:20;3.17;;;1.50;;
75165;SDS011;63747;48.042;10.088;2023-07-13T05:57:21;5.85;;;1.48;;
75165;SDS011;63747;48.042;10.088;2023-07-13T06:00:21;2.83;;;1.63;;
75165;SDS011;63747;48.042;10.088;2023-07-13T06:03:22;3.22;;;1.52;;
75165;SDS011;63747;48.042;10.088;2023-07-13T06:06:23;2.45;;;1.48;;
75165;SDS011;63747;48.042;10.088;2023-07-13T06:09:23;3.10;;;1.40;;
75165;SDS011;63747;48.042;10.088;2023-07-13T06:12:24;3.47;;;1.52;;
75165;SDS011;63747;48.042;10.088;2023-07-13T06:15:26;4.82;;;1.50;;
75165;SDS011;63747;48.042;10.088;2023-07-13T06:18:26;5.05;;;1.58;;
75165;SDS011;63747;48.042;10.088;2023-07-13T06:21:27;3.03;;;1.60;;
75165;SDS011;63747;48.042;10.088;2023-07-13T06:24:28;4.85;;;1.63;;
75165;SDS011;63747;48.042;10.088;2023-07-13T06:27:28;4.53;;;1.70;;
75165;SDS011;63747;48.042;10.088;2023-07-13T06:30:29;4.63;;;1.40;;
75165;SDS011;63747;48.042;10.088;2023-07-13T06:33:30;5.15;;;1.48;;
75165;SDS011;63747;48.042;10.088;2023-07-13T06:39:32;5.00;;;1.40;;
75165;SDS011;63747;48.042;10.088;2023-07-13T06:42:33;3.00;;;1.30;;
75165;SDS011;63747;48.042;10.088;2023-07-13T06:48:41;3.60;;;1.58;;
75165;SDS011;63747;48.042;10.088;2023-07-13T06:51:43;5.03;;;1.52;;
75165;SDS011;63747;48.042;10.088;2023-07-13T06:57:44;3.40;;;1.30;;
75165;SDS011;63747;48.042;10.088;2023-07-13T07:00:45;2.15;;;1.23;;
75165;SDS011;63747;48.042;10.088;2023-07-13T07:03:46;2.85;;;1.40;;
75165;SDS011;63747;48.042;10.088;2023-07-13T07:09:47;2.20;;;1.30;;
75165;SDS011;63747;48.042;10.088;2023-07-13T07:12:48;3.55;;;1.48;;
75165;SDS011;63747;48.042;10.088;2023-07-13T07:18:50;2.30;;;1.08;;
75165;SDS011;63747;48.042;10.088;2023-07-13T07:24:51;2.83;;;1.33;;
75165;SDS011;63747;48.042;10.088;2023-07-13T07:30:53;3.30;;;1.40;;
75165;SDS011;63747;48.042;10.088;2023-07-13T07:33:55;5.75;;;1.40;;
75165;SDS011;63747;48.042;10.088;2023-07-13T07:39:59;5.35;;;1.50;;
75165;SDS011;63747;48.042;10.088;2023-07-13T07:46:01;4.80;;;1.50;;
75165;SDS011;63747;48.042;10.088;2023-07-13T07:49:02;3.50;;;1.40;;
75165;SDS011;63747;48.042;10.088;2023-07-13T07:55:04;6.23;;;1.50;;
75165;SDS011;63747;48.042;10.088;2023-07-13T07:58:06;3.20;;;1.50;;
75165;SDS011;63747;48.042;10.088;2023-07-13T08:01:08;2.17;;;1.42;;
75165;SDS011;63747;48.042;10.088;2023-07-13T08:07:09;4.73;;;1.50;;
75165;SDS011;63747;48.042;10.088;2023-07-13T08:13:10;3.60;;;1.53;;
75165;SDS011;63747;48.042;10.088;2023-07-13T08:19:12;5.27;;;1.70;;
75165;SDS011;63747;48.042;10.088;2023-07-13T08:25:13;5.78;;;2.20;;
75165;SDS011;63747;48.042;10.088;2023-07-13T08:28:15;3.80;;;1.70;;
75165;SDS011;63747;48.042;10.088;2023-07-13T08:31:16;2.72;;;1.80;;
75165;SDS011;63747;48.042;10.088;2023-07-13T08:34:16;4.22;;;1.65;;
75165;SDS011;63747;48.042;10.088;2023-07-13T08:37:18;4.18;;;2.15;;
75165;SDS011;63747;48.042;10.088;2023-07-13T08:40:20;5.55;;;1.65;;
75165;SDS011;63747;48.042;10.088;2023-07-13T08:43:28;3.47;;;1.90;;
75165;SDS011;63747;48.042;10.088;2023-07-13T08:46:34;4.57;;;1.63;;
75165;SDS011;63747;48.042;10.088;2023-07-13T08:49:39;2.83;;;1.30;;
75165;SDS011;63747;48.042;10.088;2023-07-13T08:52:41;4.03;;;1.63;;
75165;SDS011;63747;48.042;10.088;2023-07-13T08:55:43;4.55;;;1.50;;
75165;SDS011;63747;48.042;10.088;2023-07-13T08:58:44;6.63;;;1.40;;
75165;SDS011;63747;48.042;10.088;2023-07-13T09:05:22;3.25;;;1.40;;
75165;SDS011;63747;48.042;10.088;2023-07-13T09:11:45;3.80;;;1.50;;
75165;SDS011;63747;48.042;10.088;2023-07-13T09:15:04;3.17;;;1.85;;
75165;SDS011;63747;48.042;10.088;2023-07-13T09:18:20;7.03;;;1.70;;
75165;SDS011;63747;48.042;10.088;2023-07-13T09:21:34;3.05;;;1.42;;
75165;SDS011;63747;48.042;10.088;2023-07-13T09:27:57;3.00;;;1.10;;
75165;SDS011;63747;48.042;10.088;2023-07-13T09:34:09;6.72;;;1.40;;
75165;SDS011;63747;48.042;10.088;2023-07-13T09:37:18;4.15;;;1.33;;
75165;SDS011;63747;48.042;10.088;2023-07-13T09:40:25;3.27;;;1.00;;
75165;SDS011;63747;48.042;10.088;2023-07-13T09:43:34;4.13;;;1.30;;
75165;SDS011;63747;48.042;10.088;2023-07-13T09:46:35;3.78;;;1.25;;
75165;SDS011;63747;48.042;10.088;2023-07-13T09:49:40;4.00;;;1.20;;
75165;SDS011;63747;48.042;10.088;2023-07-13T09:52:44;3.75;;;1.17;;
75165;SDS011;63747;48.042;10.088;2023-07-13T09:55:49;5.05;;;1.30;;
75165;SDS011;63747;48.042;10.088;2023-07-13T09:58:50;4.57;;;1.52;;
75165;SDS011;63747;48.042;10.088;2023-07-13T10:01:51;6.03;;;1.40;;
75165;SDS011;63747;48.042;10.088;2023-07-13T10:05:11;4.07;;;1.38;;
75165;SDS011;63747;48.042;10.088;2023-07-13T10:08:29;3.13;;;1.33;;
75165;SDS011;63747;48.042;10.088;2023-07-13T10:11:34;4.05;;;1.42;;
75165;SDS011;63747;48.042;10.088;2023-07-13T10:14:35;2.80;;;1.20;;
75165;SDS011;63747;48.042;10.088;2023-07-13T10:17:37;3.97;;;1.50;;
75165;SDS011;63747;48.042;10.088;2023-07-13T10:20:37;3.25;;;1.52;;
75165;SDS011;63747;48.042;10.088;2023-07-13T10:23:38;4.47;;;1.60;;
75165;SDS011;63747;48.042;10.088;2023-07-13T10:26:41;3.38;;;1.40;;
75165;SDS011;63747;48.042;10.088;2023-07-13T10:29:53;4.30;;;1.70;;
75165;SDS011;63747;48.042;10.088;2023-07-13T10:33:02;2.10;;;1.40;;
75165;SDS011;63747;48.042;10.088;2023-07-13T10:36:17;4.15;;;1.60;;
75165;SDS011;63747;48.042;10.088;2023-07-13T10:39:27;6.25;;;1.42;;
75165;SDS011;63747;48.042;10.088;2023-07-13T10:42:30;2.35;;;1.48;;
75165;SDS011;63747;48.042;10.088;2023-07-13T10:45:45;3.22;;;1.23;;
75165;SDS011;63747;48.042;10.088;2023-07-13T10:52:56;3.90;;;1.50;;
75165;SDS011;63747;48.042;10.088;2023-07-13T10:59:01;4.38;;;1.65;;
75165;SDS011;63747;48.042;10.088;2023-07-13T11:02:22;4.63;;;1.50;;
75165;SDS011;63747;48.042;10.088;2023-07-13T11:11:34;2.08;;;1.27;;
75165;SDS011;63747;48.042;10.088;2023-07-13T11:15:00;4.60;;;1.58;;
75165;SDS011;63747;48.042;10.088;2023-07-13T11:18:10;3.33;;;1.70;;
75165;SDS011;63747;48.042;10.088;2023-07-13T11:21:22;2.97;;;1.50;;
75165;SDS011;63747;48.042;10.088;2023-07-13T11:24:29;3.25;;;1.48;;
75165;SDS011;63747;48.042;10.088;2023-07-13T11:27:51;5.72;;;1.38;;
75165;SDS011;63747;48.042;10.088;2023-07-13T11:31:12;1.90;;;1.40;;
75165;SDS011;63747;48.042;10.088;2023-07-13T11:34:15;2.53;;;1.58;;
75165;SDS011;63747;48.042;10.088;2023-07-13T11:37:16;3.50;;;1.55;;
75165;SDS011;63747;48.042;10.088;2023-07-13T11:40:21;8.00;;;1.70;;
75165;SDS011;63747;48.042;10.088;2023-07-13T11:43:28;6.00;;;1.70;;
75165;SDS011;63747;48.042;10.088;2023-07-13T11:46:28;4.75;;;1.60;;
75165;SDS011;63747;48.042;10.088;2023-07-13T11:49:30;3.28;;;1.40;;
75165;SDS011;63747;48.042;10.088;2023-07-13T11:52:33;8.68;;;1.95;;
75165;SDS011;63747;48.042;10.088;2023-07-13T11:55:37;4.20;;;1.50;;
75165;SDS011;63747;48.042;10.088;2023-07-13T11:58:38;4.18;;;1.25;;
75165;SDS011;63747;48.042;10.088;2023-07-13T12:01:44;5.05;;;1.35;;
75165;SDS011;63747;48.042;10.088;2023-07-13T12:04:49;6.13;;;1.30;;
75165;SDS011;63747;48.042;10.088;2023-07-13T12:07:52;2.67;;;1.27;;
75165;SDS011;63747;48.042;10.088;2023-07-13T12:10:58;3.65;;;1.50;;
75165;SDS011;63747;48.042;10.088;2023-07-13T12:14:00;2.50;;;1.30;;
75165;SDS011;63747;48.042;10.088;2023-07-13T12:17:03;4.25;;;1.30;;
75165;SDS011;63747;48.042;10.088;2023-07-13T12:23:38;2.90;;;1.30;;
75165;SDS011;63747;48.042;10.088;2023-07-13T12:26:39;2.85;;;1.40;;
75165;SDS011;63747;48.042;10.088;2023-07-13T12:29:40;8.07;;;1.50;;
75165;SDS011;63747;48.042;10.088;2023-07-13T12:32:58;4.35;;;1.48;;
75165;SDS011;63747;48.042;10.088;2023-07-13T12:36:02;4.45;;;1.20;;
75165;SDS011;63747;48.042;10.088;2023-07-13T12:39:13;4.82;;;1.48;;
75165;SDS011;63747;48.042;10.088;2023-07-13T12:45:25;3.17;;;1.30;;
75165;SDS011;63747;48.042;10.088;2023-07-13T12:48:37;2.70;;;1.30;;
75165;SDS011;63747;48.042;10.088;2023-07-13T12:51:41;3.40;;;1.40;;
75165;SDS011;63747;48.042;10.088;2023-07-13T12:54:51;3.17;;;1.35;;
75165;SDS011;63747;48.042;10.088;2023-07-13T12:57:57;3.25;;;1.42;;
75165;SDS011;63747;48.042;10.088;2023-07-13T13:01:01;4.93;;;1.63;;
75165;SDS011;63747;48.042;10.088;2023-07-13T13:04:03;2.83;;;1.40;;
75165;SDS011;63747;48.042;10.088;2023-07-13T13:07:08;4.25;;;1.67;;
75165;SDS011;63747;48.042;10.088;2023-07-13T13:10:11;3.85;;;1.50;;
75165;SDS011;63747;48.042;10.088;2023-07-13T13:13:13;2.47;;;1.48;;
75165;SDS011;63747;48.042;10.088;2023-07-13T13:16:17;3.30;;;1.77;;
75165;SDS011;63747;48.042;10.088;2023-07-13T13:19:33;3.67;;;1.40;;
75165;SDS011;63747;48.042;10.088;2023-07-13T13:22:35;3.03;;;1.48;;
75165;SDS011;63747;48.042;10.088;2023-07-13T13:25:36;3.75;;;1.50;;
75165;SDS011;63747;48.042;10.088;2023-07-13T13:28:37;4.88;;;1.85;;
75165;SDS011;63747;48.042;10.088;2023-07-13T13:31:44;3.45;;;1.58;;
75165;SDS011;63747;48.042;10.088;2023-07-13T13:34:45;4.88;;;1.50;;
75165;SDS011;63747;48.042;10.088;2023-07-13T13:37:46;4.38;;;1.77;;
75165;SDS011;63747;48.042;10.088;2023-07-13T13:40:47;2.97;;;1.40;;
75165;SDS011;63747;48.042;10.088;2023-07-13T13:43:48;4.20;;;1.50;;
75165;SDS011;63747;48.042;10.088;2023-07-13T13:46:50;2.67;;;1.55;;
75165;SDS011;63747;48.042;10.088;2023-07-13T13:49:54;4.03;;;1.80;;
75165;SDS011;63747;48.042;10.088;2023-07-13T13:52:55;6.97;;;1.88;;
75165;SDS011;63747;48.042;10.088;2023-07-13T13:55:55;3.25;;;1.67;;
75165;SDS011;63747;48.042;10.088;2023-07-13T13:58:56;5.40;;;1.67;;
75165;SDS011;63747;48.042;10.088;2023-07-13T14:01:57;3.47;;;1.73;;
75165;SDS011;63747;48.042;10.088;2023-07-13T14:05:01;4.20;;;1.88;;
75165;SDS011;63747;48.042;10.088;2023-07-13T14:08:02;7.05;;;2.80;;
75165;SDS011;63747;48.042;10.088;2023-07-13T14:11:03;5.07;;;1.90;;
75165;SDS011;63747;48.042;10.088;2023-07-13T14:14:04;1.63;;;1.33;;
75165;SDS011;63747;48.042;10.088;2023-07-13T14:17:08;3.50;;;1.58;;
75165;SDS011;63747;48.042;10.088;2023-07-13T14:20:19;2.65;;;1.40;;
75165;SDS011;63747;48.042;10.088;2023-07-13T14:23:23;3.65;;;1.77;;
75165;SDS011;63747;48.042;10.088;2023-07-13T14:26:24;3.40;;;1.58;;
75165;SDS011;63747;48.042;10.088;2023-07-13T14:29:27;2.30;;;1.23;;
75165;SDS011;63747;48.042;10.088;2023-07-13T14:32:28;2.85;;;1.70;;
75165;SDS011;63747;48.042;10.088;2023-07-13T14:35:28;2.95;;;1.70;;
75165;SDS011;63747;48.042;10.088;2023-07-13T14:38:29;4.70;;;1.73;;
75165;SDS011;63747;48.042;10.088;2023-07-13T14:41:30;4.13;;;1.58;;
75165;SDS011;63747;48.042;10.088;2023-07-13T14:44:31;2.80;;;1.45;;
75165;SDS011;63747;48.042;10.088;2023-07-13T14:47:32;4.78;;;1.63;;
75165;SDS011;63747;48.042;10.088;2023-07-13T14:50:32;5.30;;;1.75;;
75165;SDS011;63747;48.042;10.088;2023-07-13T14:53:35;3.50;;;1.58;;
75165;SDS011;63747;48.042;10.088;2023-07-13T14:56:38;3.58;;;1.50;;
75165;SDS011;63747;48.042;10.088;2023-07-13T14:59:38;4.40;;;1.90;;
75165;SDS011;63747;48.042;10.088;2023-07-13T15:02:39;2.75;;;1.60;;
75165;SDS011;63747;48.042;10.088;2023-07-13T15:05:40;3.20;;;1.90;;
75165;SDS011;63747;48.042;10.088;2023-07-13T15:08:41;4.55;;;1.65;;
75165;SDS011;63747;48.042;10.088;2023-07-13T15:11:42;2.97;;;1.70;;
75165;SDS011;63747;48.042;10.088;2023-07-13T15:14:43;5.38;;;1.70;;
75165;SDS011;63747;48.042;10.088;2023-07-13T15:17:44;3.38;;;1.35;;
75165;SDS011;63747;48.042;10.088;2023-07-13T15:20:48;2.03;;;1.35;;
75165;SDS011;63747;48.042;10.088;2023-07-13T15:23:52;3.55;;;1.52;;
75165;SDS011;63747;48.042;10.088;2023-07-13T15:26:54;3.45;;;1.40;;
75165;SDS011;63747;48.042;10.088;2023-07-13T15:29:54;5.32;;;1.42;;
75165;SDS011;63747;48.042;10.088;2023-07-13T15:32:56;1.85;;;1.30;;
75165;SDS011;63747;48.042;10.088;2023-07-13T15:36:02;3.22;;;1.30;;
75165;SDS011;63747;48.042;10.088;2023-07-13T15:39:04;2.05;;;1.40;;
75165;SDS011;63747;48.042;10.088;2023-07-13T15:42:07;3.22;;;1.50;;
75165;SDS011;63747;48.042;10.088;2023-07-13T15:48:20;6.72;;;1.90;;
75165;SDS011;63747;48.042;10.088;2023-07-13T15:51:26;3.25;;;1.50;;
75165;SDS011;63747;48.042;10.088;2023-07-13T15:54:29;5.85;;;1.70;;
75165;SDS011;63747;48.042;10.088;2023-07-13T15:57:30;3.72;;;1.60;;
75165;SDS011;63747;48.042;10.088;2023-07-13T16:00:31;2.25;;;1.50;;
75165;SDS011;63747;48.042;10.088;2023-07-13T16:03:31;5.53;;;1.60;;
75165;SDS011;63747;48.042;10.088;2023-07-13T16:06:33;3.08;;;1.88;;
75165;SDS011;63747;48.042;10.088;2023-07-13T16:09:36;4.47;;;1.40;;
75165;SDS011;63747;48.042;10.088;2023-07-13T16:12:38;2.10;;;1.40;;
75165;SDS011;63747;48.042;10.088;2023-07-13T16:15:38;2.53;;;1.42;;
75165;SDS011;63747;48.042;10.088;2023-07-13T16:18:44;3.60;;;1.30;;
75165;SDS011;63747;48.042;10.088;2023-07-13T16:21:46;5.70;;;2.20;;
75165;SDS011;63747;48.042;10.088;2023-07-13T16:24:51;2.90;;;1.45;;
75165;SDS011;63747;48.042;10.088;2023-07-13T16:27:56;3.85;;;2.03;;
75165;SDS011;63747;48.042;10.088;2023-07-13T16:31:03;3.40;;;1.73;;
75165;SDS011;63747;48.042;10.088;2023-07-13T16:34:05;5.60;;;1.30;;
75165;SDS011;63747;48.042;10.088;2023-07-13T16:37:19;3.15;;;1.50;;
75165;SDS011;63747;48.042;10.088;2023-07-13T16:40:28;4.90;;;1.55;;
75165;SDS011;63747;48.042;10.088;2023-07-13T16:43:33;2.95;;;1.50;;
75165;SDS011;63747;48.042;10.088;2023-07-13T16:46:34;3.08;;;1.45;;
75165;SDS011;63747;48.042;10.088;2023-07-13T16:49:36;3.55;;;1.52;;
75165;SDS011;63747;48.042;10.088;2023-07-13T16:52:38;5.03;;;1.80;;
75165;SDS011;63747;48.042;10.088;2023-07-13T16:55:44;4.10;;;1.73;;
75165;SDS011;63747;48.042;10.088;2023-07-13T16:58:45;6.80;;;1.70;;
75165;SDS011;63747;48.042;10.088;2023-07-13T17:01:46;5.25;;;1.77;;
75165;SDS011;63747;48.042;10.088;2023-07-13T17:04:47;2.53;;;1.40;;
75165;SDS011;63747;48.042;10.088;2023-07-13T17:07:48;4.75;;;1.70;;
75165;SDS011;63747;48.042;10.088;2023-07-13T17:10:53;2.67;;;1.60;;
75165;SDS011;63747;48.042;10.088;2023-07-13T17:14:01;2.17;;;1.30;;
75165;SDS011;63747;48.042;10.088;2023-07-13T17:17:11;3.80;;;1.67;;
75165;SDS011;63747;48.042;10.088;2023-07-13T17:20:28;3.25;;;1.60;;
75165;SDS011;63747;48.042;10.088;2023-07-13T17:23:36;4.07;;;2.10;;
75165;SDS011;63747;48.042;10.088;2023-07-13T17:26:39;2.90;;;1.60;;
75165;SDS011;63747;48.042;10.088;2023-07-13T17:29:40;4.40;;;2.50;;
75165;SDS011;63747;48.042;10.088;2023-07-13T17:32:42;4.05;;;1.88;;
75165;SDS011;63747;48.042;10.088;2023-07-13T17:35:44;3.75;;;1.92;;
75165;SDS011;63747;48.042;10.088;2023-07-13T17:38:46;5.45;;;1.90;;
75165;SDS011;63747;48.042;10.088;2023-07-13T17:41:57;2.55;;;1.58;;
75165;SDS011;63747;48.042;10.088;2023-07-13T17:44:58;4.20;;;1.67;;
75165;SDS011;63747;48.042;10.088;2023-07-13T17:47:58;3.58;;;1.90;;
75165;SDS011;63747;48.042;10.088;2023-07-13T17:51:07;3.38;;;1.63;;
75165;SDS011;63747;48.042;10.088;2023-07-13T17:54:12;2.50;;;1.80;;
75165;SDS011;63747;48.042;10.088;2023-07-13T17:57:13;3.38;;;2.00;;
75165;SDS011;63747;48.042;10.088;2023-07-13T18:00:18;2.35;;;1.80;;
75165;SDS011;63747;48.042;10.088;2023-07-13T18:03:31;3.42;;;1.70;;
75165;SDS011;63747;48.042;10.088;2023-07-13T18:06:42;3.50;;;1.73;;
75165;SDS011;63747;48.042;10.088;2023-07-13T18:09:52;3.28;;;1.45;;
75165;SDS011;63747;48.042;10.088;2023-07-13T18:12:53;2.90;;;1.60;;
75165;SDS011;63747;48.042;10.088;2023-07-13T18:15:54;3.20;;;1.65;;
75165;SDS011;63747;48.042;10.088;2023-07-13T18:18:58;3.20;;;1.80;;
75165;SDS011;63747;48.042;10.088;2023-07-13T18:22:02;2.53;;;1.80;;
75165;SDS011;63747;48.042;10.088;2023-07-13T18:25:13;3.63;;;2.10;;
75165;SDS011;63747;48.042;10.088;2023-07-13T18:28:16;3.70;;;2.08;;
75165;SDS011;63747;48.042;10.088;2023-07-13T18:31:18;3.13;;;2.38;;
75165;SDS011;63747;48.042;10.088;2023-07-13T18:34:21;4.90;;;2.30;;
75165;SDS011;63747;48.042;10.088;2023-07-13T18:37:22;3.33;;;2.30;;
75165;SDS011;63747;48.042;10.088;2023-07-13T18:40:23;4.03;;;2.60;;
75165;SDS011;63747;48.042;10.088;2023-07-13T18:43:29;3.45;;;2.40;;
75165;SDS011;63747;48.042;10.088;2023-07-13T18:46:30;2.97;;;2.10;;
75165;SDS011;63747;48.042;10.088;2023-07-13T18:49:34;2.53;;;1.98;;
75165;SDS011;63747;48.042;10.088;2023-07-13T18:52:34;2.10;;;1.77;;
75165;SDS011;63747;48.042;10.088;2023-07-13T18:55:35;3.47;;;1.70;;
75165;SDS011;63747;48.042;10.088;2023-07-13T18:58:36;4.93;;;1.90;;
75165;SDS011;63747;48.042;10.088;2023-07-13T19:01:37;3.50;;;2.05;;
75165;SDS011;63747;48.042;10.088;2023-07-13T19:04:37;4.32;;;1.90;;
75165;SDS011;63747;48.042;10.088;2023-07-13T19:07:38;3.38;;;1.80;;
75165;SDS011;63747;48.042;10.088;2023-07-13T19:10:39;2.55;;;1.80;;
75165;SDS011;63747;48.042;10.088;2023-07-13T19:13:39;3.95;;;1.90;;
75165;SDS011;63747;48.042;10.088;2023-07-13T19:16:41;3.85;;;2.00;;
75165;SDS011;63747;48.042;10.088;2023-07-13T19:19:42;2.92;;;2.00;;
75165;SDS011;63747;48.042;10.088;2023-07-13T19:22:44;4.85;;;1.80;;
75165;SDS011;63747;48.042;10.088;2023-07-13T19:25:45;3.10;;;2.00;;
75165;SDS011;63747;48.042;10.088;2023-07-13T19:28:47;3.42;;;2.28;;
75165;SDS011;63747;48.042;10.088;2023-07-13T19:31:51;2.80;;;1.92;;
75165;SDS011;63747;48.042;10.088;2023-07-13T19:34:51;5.75;;;2.15;;
75165;SDS011;63747;48.042;10.088;2023-07-13T19:37:54;5.50;;;2.63;;
75165;SDS011;63747;48.042;10.088;2023-07-13T19:40:55;7.45;;;2.70;;
75165;SDS011;63747;48.042;10.088;2023-07-13T19:43:55;5.45;;;2.75;;